createdAt,value
2019-01-04T00:00:02.046Z,104310.79
2019-01-04T00:02:31.274Z,104312.59
2019-01-04T00:05:00.480Z,104315.97
2019-01-04T00:13:15.816Z,104313.12
2019-01-04T00:15:45.387Z,104306.63
2019-01-04T00:18:14.463Z,104307.34
2019-01-04T00:20:43.557Z,104301.36
2019-01-04T00:23:12.707Z,104303.67
2019-01-04T00:25:42.749Z,104302.53
2019-01-04T00:28:12.494Z,104300.33
2019-01-04T00:30:41.580Z,104303.09
2019-01-04T00:33:10.755Z,104301.88
2019-01-04T00:35:39.873Z,104304.70
2019-01-04T00:38:08.967Z,104294.23
2019-01-04T00:40:38.103Z,104294.86
2019-01-04T00:43:07.365Z,104293.14
2019-01-04T00:45:36.506Z,104292.80
2019-01-04T00:48:05.606Z,104292.66
2019-01-04T00:50:34.682Z,104288.14
2019-01-04T00:53:03.874Z,104289.83
2019-01-04T00:55:42.375Z,104292.03
2019-01-04T01:00:22.351Z,104286.19
2019-01-04T01:05:10.094Z,104291.90
2019-01-04T01:07:51.592Z,104283.22
2019-01-04T01:10:30.382Z,104289.59
2019-01-04T01:14:07.721Z,104307.05
2019-01-04T01:17:49.239Z,104305.70
2019-01-04T01:23:06.195Z,104297.37
2019-01-04T01:25:50.194Z,104291.45
2019-01-04T01:28:31.016Z,104283.77
2019-01-04T01:31:14.570Z,104279.26
2019-01-04T01:33:54.654Z,104275.98
2019-01-04T01:36:41.330Z,104274.17
2019-01-04T01:41:00.429Z,104275.45
2019-01-04T01:44:48.867Z,104276.72
2019-01-04T01:47:38.747Z,104287.14
2019-01-04T01:50:32.624Z,104280.33
2019-01-04T01:53:01.676Z,104270.83
2019-01-04T01:55:30.808Z,104277.94
2019-01-04T01:57:59.858Z,104291.25
2019-01-04T02:00:29.047Z,104289.94
2019-01-04T02:02:58.095Z,104287.28
2019-01-04T02:05:27.320Z,104288.38
2019-01-04T02:07:56.396Z,104283.39
2019-01-04T02:10:25.414Z,104289.69
2019-01-04T02:12:54.463Z,104296.98
2019-01-04T02:15:23.552Z,104296.03
2019-01-04T02:17:52.569Z,104300.27
2019-01-04T02:20:22.610Z,104291.12
2019-01-04T02:22:51.738Z,104288.56
2019-01-04T02:25:20.814Z,104292.11
2019-01-04T02:27:50.946Z,104284.16
2019-01-04T02:30:20.175Z,104290.77
2019-01-04T02:32:49.203Z,104287.81
2019-01-04T02:35:18.326Z,104289.16
2019-01-04T02:37:47.454Z,104289.78
2019-01-04T02:40:16.486Z,104281.86
2019-01-04T02:42:45.518Z,104281.00
2019-01-04T02:45:14.583Z,104280.27
2019-01-04T02:47:43.654Z,104282.95
2019-01-04T02:50:12.737Z,104285.16
2019-01-04T02:52:41.852Z,104289.30
2019-01-04T02:55:10.904Z,104292.19
2019-01-04T02:57:39.992Z,104297.31
2019-01-04T03:00:09.365Z,104306.17
2019-01-04T03:02:38.435Z,104304.31
2019-01-04T03:05:07.662Z,104302.09
2019-01-04T03:07:36.740Z,104305.59
2019-01-04T03:10:06.185Z,104303.70
2019-01-04T03:12:35.321Z,104300.50
2019-01-04T03:15:04.711Z,104295.72
2019-01-04T03:17:33.760Z,104300.33
2019-01-04T03:20:02.795Z,104301.05
2019-01-04T03:22:32.154Z,104303.25
2019-01-04T03:25:01.199Z,104296.55
2019-01-04T03:27:30.280Z,104295.06
2019-01-04T03:29:59.899Z,104296.12
2019-01-04T03:32:28.913Z,104288.79
2019-01-04T03:34:57.964Z,104278.77
2019-01-04T03:37:27.044Z,104274.45
2019-01-04T03:39:56.215Z,104269.18
2019-01-04T03:42:25.561Z,104272.11
2019-01-04T03:44:54.553Z,104259.87
2019-01-04T03:47:23.589Z,104255.84
2019-01-04T03:49:52.658Z,104255.22
2019-01-04T03:52:22.012Z,104255.66
2019-01-04T03:54:51.027Z,104256.47
2019-01-04T03:57:20.151Z,104258.73
2019-01-04T03:59:49.218Z,104262.62
2019-01-04T04:02:18.271Z,104259.30
2019-01-04T04:04:47.440Z,104257.88
2019-01-04T04:07:16.613Z,104262.67
2019-01-04T04:09:45.636Z,104259.64
2019-01-04T04:12:14.707Z,104252.78
2019-01-04T04:14:44.413Z,104254.75
2019-01-04T04:17:13.769Z,104253.78
2019-01-04T04:19:42.893Z,104257.53
2019-01-04T04:22:11.949Z,104252.50
2019-01-04T04:24:41.046Z,104254.55
2019-01-04T04:27:10.124Z,104255.90
2019-01-04T04:29:39.235Z,104263.34
2019-01-04T04:32:11.504Z,104263.20
2019-01-04T04:34:40.603Z,104264.05
2019-01-04T04:37:09.708Z,104274.31
2019-01-04T04:39:38.784Z,104267.17
2019-01-04T04:42:07.881Z,104270.67
2019-01-04T04:44:36.983Z,104268.41
2019-01-04T04:47:06.043Z,104262.64
2019-01-04T04:49:35.158Z,104261.09
2019-01-04T04:52:04.255Z,104262.38
2019-01-04T04:54:33.340Z,104251.34
2019-01-04T04:57:02.573Z,104253.73
2019-01-04T04:59:31.739Z,104247.38
2019-01-04T05:02:00.761Z,104252.05
2019-01-04T05:04:29.848Z,104247.94
2019-01-04T05:06:58.971Z,104245.53
2019-01-04T05:09:27.980Z,104242.12
2019-01-04T05:11:56.970Z,104243.09
2019-01-04T05:14:26.057Z,104241.41
2019-01-04T05:16:55.124Z,104244.10
2019-01-04T05:19:24.127Z,104239.58
2019-01-04T05:21:53.213Z,104234.84
2019-01-04T05:24:22.414Z,104231.77
2019-01-04T05:26:51.484Z,104238.16
2019-01-04T05:29:20.617Z,104233.89
2019-01-04T05:31:49.697Z,104233.17
2019-01-04T05:34:19.280Z,104232.98
2019-01-04T05:36:47.908Z,104232.41
2019-01-04T05:39:16.996Z,104233.03
2019-01-04T05:41:46.103Z,104230.63
2019-01-04T05:44:15.180Z,104227.34
2019-01-04T05:46:44.250Z,104222.73
2019-01-04T05:49:13.338Z,104225.08
2019-01-04T05:51:44.318Z,104222.68
2019-01-04T05:54:13.993Z,104232.72
2019-01-04T05:56:44.517Z,104237.86
2019-01-04T05:59:14.968Z,104237.66
2019-01-04T06:01:45.170Z,104227.53
2019-01-04T06:04:14.182Z,104234.88
2019-01-04T06:06:43.195Z,104242.22
2019-01-04T06:09:12.197Z,104234.07
2019-01-04T06:11:41.193Z,104233.35
2019-01-04T06:14:10.256Z,104233.63
2019-01-04T06:16:39.289Z,104227.83
2019-01-04T06:19:08.328Z,104236.89
2019-01-04T06:21:37.340Z,104229.26
2019-01-04T06:24:06.391Z,104230.50
2019-01-04T06:26:35.439Z,104228.82
2019-01-04T06:29:04.530Z,104224.79
2019-01-04T06:31:33.627Z,104222.83
2019-01-04T06:34:02.685Z,104222.45
2019-01-04T06:36:31.720Z,104226.27
2019-01-04T06:39:00.881Z,104227.52
2019-01-04T06:41:29.910Z,104232.52
2019-01-04T06:43:59.077Z,104229.25
2019-01-04T06:46:28.153Z,104239.27
2019-01-04T06:48:57.284Z,104240.61
2019-01-04T06:51:27.956Z,104242.67
2019-01-04T06:53:55.614Z,104249.52
2019-01-04T06:56:24.737Z,104258.20
2019-01-04T06:58:53.814Z,104262.60
2019-01-04T07:01:22.989Z,104264.30
2019-01-04T07:03:52.017Z,104267.11
2019-01-04T07:06:21.171Z,104263.70
2019-01-04T07:08:50.259Z,104264.09
2019-01-04T07:11:19.401Z,104260.74
2019-01-04T07:13:48.409Z,104263.19
2019-01-04T07:16:17.518Z,104258.88
2019-01-04T07:18:46.546Z,104258.40
2019-01-04T07:21:15.631Z,104254.86
2019-01-04T07:23:44.774Z,104256.68
2019-01-04T07:26:13.915Z,104257.88
2019-01-04T07:28:43.176Z,104257.41
2019-01-04T07:31:12.301Z,104259.60
2019-01-04T07:33:41.293Z,104261.91
2019-01-04T07:36:10.383Z,104266.59
2019-01-04T07:38:39.567Z,104259.50
2019-01-04T07:41:08.581Z,104257.30
2019-01-04T07:43:37.715Z,104261.84
2019-01-04T07:46:06.754Z,104260.98
2019-01-04T07:48:35.857Z,104261.47
2019-01-04T07:51:05.149Z,104268.45
2019-01-04T07:53:35.147Z,104270.91
2019-01-04T07:56:04.246Z,104276.41
2019-01-04T07:58:33.289Z,104275.69
2019-01-04T08:01:02.312Z,104281.33
2019-01-04T08:03:31.346Z,104286.46
2019-01-04T08:06:02.127Z,104290.76
2019-01-04T08:08:31.163Z,104293.20
2019-01-04T08:11:00.201Z,104293.85
2019-01-04T08:13:29.242Z,104290.44
2019-01-04T08:15:58.418Z,104292.27
2019-01-04T08:18:27.590Z,104294.61
2019-01-04T08:20:56.681Z,104300.45
2019-01-04T08:23:25.838Z,104298.25
2019-01-04T08:25:54.877Z,104306.55
2019-01-04T08:28:23.967Z,104310.92
2019-01-04T08:30:54.144Z,104309.58
2019-01-04T08:33:23.142Z,104309.95
2019-01-04T08:35:52.162Z,104324.34
2019-01-04T08:38:21.192Z,104320.80
2019-01-04T08:40:50.289Z,104320.69
2019-01-04T08:43:19.314Z,104314.06
2019-01-04T08:45:48.530Z,104317.84
2019-01-04T08:48:17.555Z,104323.29
2019-01-04T08:50:46.578Z,104325.12
2019-01-04T08:53:15.705Z,104335.30
2019-01-04T08:55:45.114Z,104327.94
2019-01-04T08:58:14.497Z,104335.48
2019-01-04T09:00:43.655Z,104334.24
2019-01-04T09:03:12.736Z,104348.95
2019-01-04T09:05:41.893Z,104342.71
2019-01-04T09:08:11.011Z,104353.05
2019-01-04T09:10:40.080Z,104347.91
2019-01-04T09:13:09.222Z,104352.25
2019-01-04T09:15:38.954Z,104350.86
2019-01-04T09:18:08.026Z,104353.37
2019-01-04T09:20:37.168Z,104349.77
2019-01-04T09:23:06.207Z,104362.06
2019-01-04T09:25:35.280Z,104370.28
2019-01-04T09:28:04.596Z,104364.03
2019-01-04T09:30:33.674Z,104360.06
2019-01-04T09:33:03.610Z,104364.05
2019-01-04T09:35:32.707Z,104362.80
2019-01-04T09:38:02.110Z,104360.05
2019-01-04T09:40:32.138Z,104357.80
2019-01-04T09:43:01.283Z,104356.88
2019-01-04T09:45:30.354Z,104362.98
2019-01-04T09:47:59.483Z,104353.02
2019-01-04T09:50:28.505Z,104350.12
2019-01-04T09:52:57.638Z,104340.88
2019-01-04T09:55:27.715Z,104344.19
2019-01-04T09:57:56.902Z,104344.13
2019-01-04T10:00:26.571Z,104345.98
2019-01-04T10:02:55.086Z,104350.03
2019-01-04T10:05:24.822Z,104355.27
2019-01-04T10:07:54.039Z,104354.27
2019-01-04T10:10:23.322Z,104356.32
2019-01-04T10:12:52.579Z,104363.84
2019-01-04T10:15:21.667Z,104363.97
2019-01-04T10:17:50.693Z,104365.97
2019-01-04T10:20:20.240Z,104367.95
2019-01-04T10:22:49.328Z,104368.08
2019-01-04T10:25:18.458Z,104369.88
2019-01-04T10:27:47.699Z,104370.62
2019-01-04T10:30:24.336Z,104372.05
2019-01-04T10:32:53.527Z,104364.86
2019-01-04T10:35:22.902Z,104362.61
2019-01-04T10:37:51.973Z,104356.99
2019-01-04T10:40:21.557Z,104348.30
2019-01-04T10:42:50.698Z,104351.92
2019-01-04T10:45:19.919Z,104351.36
2019-01-04T10:47:49.190Z,104351.39
2019-01-04T10:50:18.574Z,104357.86
2019-01-04T10:52:47.913Z,104352.87
2019-01-04T10:55:17.362Z,104358.97
2019-01-04T10:57:47.009Z,104351.28
2019-01-04T11:00:16.331Z,104350.00
2019-01-04T11:02:45.504Z,104341.27
2019-01-04T11:05:14.711Z,104335.56
2019-01-04T11:07:43.884Z,104333.91
2019-01-04T11:10:13.030Z,104333.62
2019-01-04T11:12:42.275Z,104329.61
2019-01-04T11:15:11.500Z,104326.97
2019-01-04T11:17:40.612Z,104324.83
2019-01-04T11:20:36.841Z,104328.56
2019-01-04T11:23:14.946Z,104324.57
2019-01-04T11:26:19.203Z,104322.42
2019-01-04T11:29:29.144Z,104323.49
2019-01-04T11:32:06.950Z,104314.22
2019-01-04T11:34:49.740Z,104313.09
2019-01-04T11:37:28.841Z,104313.14
2019-01-04T11:40:44.854Z,104311.48
2019-01-04T11:43:26.519Z,104310.83
2019-01-04T11:46:14.965Z,104303.43
2019-01-04T11:49:00.789Z,104302.62
2019-01-04T11:51:53.093Z,104309.55
2019-01-04T11:54:28.208Z,104305.22
2019-01-04T11:56:58.266Z,104300.52
2019-01-04T11:59:30.238Z,104297.84
2019-01-04T12:02:00.463Z,104288.59
2019-01-04T12:04:29.523Z,104285.73
2019-01-04T12:06:59.771Z,104286.10
2019-01-04T12:09:29.687Z,104288.64
2019-01-04T12:12:03.573Z,104284.43
2019-01-04T12:14:41.240Z,104276.17
2019-01-04T12:17:06.117Z,104277.73
2019-01-04T12:19:35.527Z,104280.97
2019-01-04T12:22:05.486Z,104274.05
2019-01-04T12:24:35.566Z,104271.36
2019-01-04T12:27:05.005Z,104271.03
2019-01-04T12:29:34.874Z,104275.78
2019-01-04T12:32:04.148Z,104269.36
2019-01-04T12:34:33.346Z,104261.95
2019-01-04T12:37:02.516Z,104264.00
2019-01-04T12:39:31.746Z,104264.37
2019-01-04T12:42:01.015Z,104260.65
2019-01-04T12:44:30.149Z,104255.61
2019-01-04T12:46:59.292Z,104257.63
2019-01-04T12:49:28.748Z,104258.69
2019-01-04T12:51:57.842Z,104255.33
2019-01-04T12:54:30.151Z,104248.61
2019-01-04T12:57:00.346Z,104251.84
2019-01-04T12:59:29.516Z,104252.38
2019-01-04T13:02:02.941Z,104247.67
2019-01-04T13:04:32.679Z,104254.82
2019-01-04T13:07:03.336Z,104250.77
2019-01-04T13:09:32.698Z,104253.80
2019-01-04T13:12:01.789Z,104242.99
2019-01-04T13:14:32.055Z,104244.02
2019-01-04T13:17:01.279Z,104241.34
2019-01-04T13:19:31.294Z,104247.28
2019-01-04T13:22:00.386Z,104244.78
2019-01-04T13:24:29.613Z,104249.85
2019-01-04T13:26:59.026Z,104248.86
2019-01-04T13:29:28.309Z,104248.34
2019-01-04T13:31:57.578Z,104239.73
2019-01-04T13:34:26.781Z,104240.06
2019-01-04T13:36:56.083Z,104239.41
2019-01-04T13:39:25.642Z,104233.17
2019-01-04T13:41:54.888Z,104233.53
2019-01-04T13:44:24.069Z,104228.95
2019-01-04T13:46:53.398Z,104229.64
2019-01-04T13:49:23.311Z,104236.41
2019-01-04T13:51:52.437Z,104230.30
2019-01-04T13:54:21.841Z,104229.81
2019-01-04T13:56:50.976Z,104223.22
2019-01-04T13:59:20.814Z,104218.67
2019-01-04T14:01:49.942Z,104220.84
2019-01-04T14:04:19.254Z,104221.20
2019-01-04T14:06:48.447Z,104223.58
2019-01-04T14:09:18.121Z,104222.91
2019-01-04T14:11:47.247Z,104217.02
2019-01-04T14:14:16.629Z,104221.06
2019-01-04T14:16:45.691Z,104227.16
2019-01-04T14:19:15.930Z,104219.22
2019-01-04T14:21:45.076Z,104219.22
2019-01-04T14:24:14.171Z,104219.88
2019-01-04T14:26:43.973Z,104225.29
2019-01-04T14:29:13.075Z,104218.17
2019-01-04T14:31:46.506Z,104224.23
2019-01-04T14:34:15.770Z,104217.16
2019-01-04T14:36:45.147Z,104220.19
2019-01-04T14:39:14.324Z,104216.82
2019-01-04T14:41:44.402Z,104221.23
2019-01-04T14:44:14.064Z,104225.62
2019-01-04T14:46:43.181Z,104227.16
2019-01-04T14:49:12.558Z,104230.20
2019-01-04T14:51:41.827Z,104222.58
2019-01-04T14:54:11.426Z,104220.41
2019-01-04T14:56:40.779Z,104219.55
2019-01-04T14:59:09.847Z,104220.91
2019-01-04T15:01:45.588Z,104224.46
2019-01-04T15:04:14.784Z,104221.59
2019-01-04T15:06:44.010Z,104227.86
2019-01-04T15:09:13.534Z,104231.74
2019-01-04T15:11:42.811Z,104228.02
2019-01-04T15:14:11.967Z,104217.56
2019-01-04T15:16:41.145Z,104229.39
2019-01-04T15:19:10.497Z,104220.27
2019-01-04T15:21:40.394Z,104218.58
2019-01-04T15:24:09.950Z,104216.54
2019-01-04T15:26:40.168Z,104217.73
2019-01-04T15:29:09.516Z,104213.14
2019-01-04T15:31:38.802Z,104214.17
2019-01-04T15:34:07.972Z,104222.45
2019-01-04T15:36:37.930Z,104219.05
2019-01-04T15:39:09.620Z,104217.02
2019-01-04T15:41:38.920Z,104220.88
2019-01-04T15:44:08.169Z,104227.47
2019-01-04T15:46:38.164Z,104223.75
2019-01-04T15:49:07.313Z,104227.80
2019-01-04T15:51:36.367Z,104225.27
2019-01-04T15:54:06.061Z,104228.30
2019-01-04T15:56:35.364Z,104223.05
2019-01-04T15:59:04.543Z,104228.12
2019-01-04T16:01:33.728Z,104225.92
2019-01-04T16:04:02.973Z,104221.38
2019-01-04T16:06:32.275Z,104227.97
2019-01-04T16:09:01.636Z,104224.41
2019-01-04T16:11:31.179Z,104231.66
2019-01-04T16:14:00.657Z,104226.25
2019-01-04T16:16:29.965Z,104227.27
2019-01-04T16:19:02.520Z,104226.95
2019-01-04T16:21:31.904Z,104224.54
2019-01-04T16:24:02.018Z,104220.81
2019-01-04T16:26:32.164Z,104225.03
2019-01-04T16:29:01.972Z,104229.59
2019-01-04T16:31:31.484Z,104231.79
2019-01-04T16:34:00.895Z,104228.03
2019-01-04T16:36:30.028Z,104237.33
2019-01-04T16:38:59.221Z,104239.17
2019-01-04T16:41:28.682Z,104239.34
2019-01-04T16:43:58.203Z,104243.72
2019-01-04T16:46:27.451Z,104247.77
2019-01-04T16:48:56.618Z,104247.45
2019-01-04T16:51:25.885Z,104247.11
2019-01-04T16:53:55.323Z,104251.17
2019-01-04T16:56:24.391Z,104255.72
2019-01-04T16:58:54.139Z,104250.97
2019-01-04T17:01:23.833Z,104253.67
2019-01-04T17:03:52.899Z,104253.84
2019-01-04T17:06:22.203Z,104250.08
2019-01-04T17:08:51.281Z,104248.73
2019-01-04T17:11:21.417Z,104256.34
2019-01-04T17:13:50.810Z,104253.14
2019-01-04T17:16:20.068Z,104241.84
2019-01-04T17:18:49.191Z,104245.89
2019-01-04T17:21:18.430Z,104250.94
2019-01-04T17:23:48.295Z,104246.39
2019-01-04T17:26:17.423Z,104248.06
2019-01-04T17:28:46.475Z,104252.09
2019-01-04T17:31:15.539Z,104255.94
2019-01-04T17:33:44.578Z,104251.55
2019-01-04T17:36:13.826Z,104257.12
2019-01-04T17:38:44.859Z,104255.77
2019-01-04T17:41:15.245Z,104263.51
2019-01-04T17:43:44.602Z,104256.92
2019-01-04T17:46:13.819Z,104254.38
2019-01-04T17:48:42.873Z,104255.37
2019-01-04T17:51:11.967Z,104259.94
2019-01-04T17:53:42.249Z,104255.53
2019-01-04T17:56:11.320Z,104267.81
2019-01-04T17:58:40.373Z,104266.63
2019-01-04T18:01:09.491Z,104264.25
2019-01-04T18:03:38.636Z,104267.48
2019-01-04T18:06:07.792Z,104263.92
2019-01-04T18:08:36.858Z,104263.06
2019-01-04T18:11:05.927Z,104264.91
2019-01-04T18:13:39.991Z,104269.48
2019-01-04T18:16:09.225Z,104263.39
2019-01-04T18:18:38.309Z,104261.67
2019-01-04T18:21:07.442Z,104262.36
2019-01-04T18:23:36.548Z,104262.00
2019-01-04T18:26:05.637Z,104253.56
2019-01-04T18:28:34.643Z,104258.97
2019-01-04T18:31:03.823Z,104255.41
2019-01-04T18:33:32.873Z,104254.55
2019-01-04T18:36:01.929Z,104252.34
2019-01-04T18:38:31.158Z,104252.87
2019-01-04T18:41:00.220Z,104254.05
2019-01-04T18:43:29.353Z,104258.44
2019-01-04T18:45:58.419Z,104256.27
2019-01-04T18:48:27.477Z,104260.65
2019-01-04T18:50:56.606Z,104261.67
2019-01-04T18:53:26.382Z,104267.72
2019-01-04T18:55:55.524Z,104267.02
2019-01-04T18:58:24.574Z,104259.91
2019-01-04T19:00:53.600Z,104263.96
2019-01-04T19:03:22.752Z,104265.84
2019-01-04T19:05:51.884Z,104261.26
2019-01-04T19:08:20.990Z,104265.31
2019-01-04T19:10:50.078Z,104258.06
2019-01-04T19:13:19.182Z,104265.67
2019-01-04T19:15:48.279Z,104271.94
2019-01-04T19:18:17.385Z,104267.02
2019-01-04T19:20:46.496Z,104264.81
2019-01-04T19:23:16.072Z,104269.73
2019-01-04T19:25:45.206Z,104267.88
2019-01-04T19:28:14.269Z,104269.08
2019-01-04T19:30:43.330Z,104269.77
2019-01-04T19:33:12.450Z,104271.61
2019-01-04T19:35:41.576Z,104272.27
2019-01-04T19:38:11.366Z,104273.78
2019-01-04T19:40:40.838Z,104269.89
2019-01-04T19:43:09.907Z,104266.66
2019-01-04T19:45:38.963Z,104270.37
2019-01-04T19:48:08.063Z,104271.73
2019-01-04T19:50:37.136Z,104274.09
2019-01-04T19:53:06.245Z,104279.13
2019-01-04T19:55:35.413Z,104272.38
2019-01-04T19:58:04.650Z,104272.38
2019-01-04T20:00:33.846Z,104276.44
2019-01-04T20:03:02.907Z,104271.19
2019-01-04T20:06:35.508Z,104276.92
2019-01-04T20:11:33.571Z,104275.58
2019-01-04T20:14:19.876Z,104279.13
2019-01-04T20:17:02.417Z,104278.80
2019-01-04T20:19:36.637Z,104277.61
2019-01-04T20:22:10.679Z,104272.21
2019-01-04T20:24:50.410Z,104270.00
2019-01-04T20:28:32.282Z,104273.69
2019-01-04T20:31:06.603Z,104276.22
2019-01-04T20:33:57.607Z,104277.20
2019-01-04T20:37:34.502Z,104275.16
2019-01-04T20:40:08.858Z,104276.02
2019-01-04T20:42:41.956Z,104279.20
2019-01-04T20:45:16.273Z,104275.16
2019-01-04T20:49:53.047Z,104270.28
2019-01-04T20:52:26.136Z,104274.66
2019-01-04T20:55:00.299Z,104267.22
2019-01-04T20:59:40.178Z,104263.17
2019-01-04T21:03:17.159Z,104267.87
2019-01-04T21:06:27.385Z,104263.16
2019-01-04T21:10:03.127Z,104265.85
2019-01-04T21:14:41.248Z,104263.64
2019-01-04T21:17:23.269Z,104257.02
2019-01-04T21:22:02.542Z,104258.85
2019-01-04T21:25:39.127Z,104256.52
2019-01-04T21:28:13.181Z,104250.59
2019-01-04T21:32:49.304Z,104247.73
2019-01-04T21:35:57.656Z,104245.94
2019-01-04T21:38:32.152Z,104236.00
2019-01-04T21:41:10.321Z,104243.94
2019-01-04T21:45:47.384Z,104244.80
2019-01-04T21:48:22.157Z,104248.97
2019-01-04T21:51:32.550Z,104244.09
2019-01-04T21:54:06.640Z,104245.08
2019-01-04T21:56:44.771Z,104245.08
2019-01-04T21:59:50.414Z,104248.80
2019-01-04T22:04:30.126Z,104249.95
2019-01-04T22:07:04.193Z,104243.02
2019-01-04T22:10:36.281Z,104242.66
2019-01-04T22:13:10.333Z,104240.28
2019-01-04T22:15:43.421Z,104234.02
2019-01-04T22:18:17.699Z,104236.72
2019-01-04T22:21:49.635Z,104240.07
2019-01-04T22:24:23.720Z,104232.14
2019-01-04T22:27:14.926Z,104233.97
2019-01-04T22:31:51.671Z,104231.22
2019-01-04T22:34:27.794Z,104231.28
2019-01-04T22:37:06.854Z,104228.05
2019-01-04T22:39:44.851Z,104239.16
2019-01-04T22:42:19.041Z,104241.48
2019-01-04T22:45:53.868Z,104236.61
2019-01-04T22:48:27.991Z,104229.99
2019-01-04T22:51:06.231Z,104235.91
2019-01-04T22:54:10.707Z,104237.96
2019-01-04T22:56:47.758Z,104232.69
2019-01-04T22:59:22.044Z,104231.01
2019-01-04T23:01:56.163Z,104227.12
2019-01-04T23:04:32.239Z,104218.77
2019-01-04T23:07:06.295Z,104219.45
2019-01-04T23:09:41.490Z,104219.45
2019-01-04T23:12:17.521Z,104222.15
2019-01-04T23:14:51.736Z,104219.03
2019-01-04T23:17:26.772Z,104219.30
2019-01-04T23:22:08.362Z,104210.81
2019-01-04T23:24:42.525Z,104221.38
2019-01-04T23:27:16.786Z,104216.08
2019-01-04T23:29:51.883Z,104216.52
2019-01-04T23:32:30.063Z,104221.41
2019-01-04T23:35:04.458Z,104214.03
2019-01-04T23:37:56.838Z,104216.78
2019-01-04T23:40:31.837Z,104215.77
2019-01-04T23:43:06.000Z,104221.16
2019-01-04T23:45:56.771Z,104221.53
2019-01-04T23:48:32.675Z,104222.20
2019-01-04T23:51:11.867Z,104225.59
2019-01-04T23:53:46.772Z,104216.31
2019-01-04T23:57:18.731Z,104223.52
2019-01-04T23:59:52.767Z,104214.73
